sensor_id;sensor_type;location;lat;lon;timestamp;temperature;humidity
48535;DHT22;34323;52.022;5.686;2023-04-03T00:01:16;7.50;99.90
48535;DHT22;34323;52.022;5.686;2023-04-03T00:03:42;7.60;99.90
48535;DHT22;34323;52.022;5.686;2023-04-03T00:06:09;7.70;99.90
48535;DHT22;34323;52.022;5.686;2023-04-03T00:08:36;7.80;99.90
48535;DHT22;34323;52.022;5.686;2023-04-03T00:11:02;7.90;99.90
48535;DHT22;34323;52.022;5.686;2023-04-03T00:13:28;8.00;99.90
48535;DHT22;34323;52.022;5.686;2023-04-03T00:15:54;8.00;99.90
48535;DHT22;34323;52.022;5.686;2023-04-03T00:18:20;8.10;99.90
48535;DHT22;34323;52.022;5.686;2023-04-03T00:20:46;8.00;99.90
48535;DHT22;34323;52.022;5.686;2023-04-03T00:23:11;8.10;99.90
48535;DHT22;34323;52.022;5.686;2023-04-03T00:25:37;8.00;99.90
48535;DHT22;34323;52.022;5.686;2023-04-03T00:28:04;8.00;99.90
48535;DHT22;34323;52.022;5.686;2023-04-03T00:30:30;7.80;99.90
48535;DHT22;34323;52.022;5.686;2023-04-03T00:32:56;7.80;99.90
48535;DHT22;34323;52.022;5.686;2023-04-03T00:35:23;7.90;99.90
48535;DHT22;34323;52.022;5.686;2023-04-03T00:37:51;7.80;99.90
48535;DHT22;34323;52.022;5.686;2023-04-03T00:40:17;7.80;99.90
48535;DHT22;34323;52.022;5.686;2023-04-03T00:42:45;7.70;99.90
48535;DHT22;34323;52.022;5.686;2023-04-03T00:45:22;7.50;99.90
48535;DHT22;34323;52.022;5.686;2023-04-03T00:47:48;7.50;99.90
48535;DHT22;34323;52.022;5.686;2023-04-03T00:50:15;7.40;99.90
48535;DHT22;34323;52.022;5.686;2023-04-03T00:52:40;7.30;99.90
48535;DHT22;34323;52.022;5.686;2023-04-03T00:55:08;7.40;99.90
48535;DHT22;34323;52.022;5.686;2023-04-03T00:57:34;7.30;99.90
48535;DHT22;34323;52.022;5.686;2023-04-03T01:00:08;7.40;99.90
48535;DHT22;34323;52.022;5.686;2023-04-03T01:02:34;7.30;99.90
48535;DHT22;34323;52.022;5.686;2023-04-03T01:05:00;7.10;99.90
48535;DHT22;34323;52.022;5.686;2023-04-03T01:07:29;7.20;99.90
48535;DHT22;34323;52.022;5.686;2023-04-03T01:10:00;7.10;99.90
48535;DHT22;34323;52.022;5.686;2023-04-03T01:12:29;7.00;99.90
48535;DHT22;34323;52.022;5.686;2023-04-03T01:14:57;6.80;99.90
48535;DHT22;34323;52.022;5.686;2023-04-03T01:17:35;6.70;99.90
48535;DHT22;34323;52.022;5.686;2023-04-03T01:25:47;7.10;99.90
48535;DHT22;34323;52.022;5.686;2023-04-03T01:28:29;7.10;99.90
48535;DHT22;34323;52.022;5.686;2023-04-03T01:33:41;7.20;99.90
48535;DHT22;34323;52.022;5.686;2023-04-03T01:36:07;7.10;99.90
48535;DHT22;34323;52.022;5.686;2023-04-03T01:38:33;7.30;99.90
48535;DHT22;34323;52.022;5.686;2023-04-03T01:40:58;7.30;99.90
48535;DHT22;34323;52.022;5.686;2023-04-03T01:43:24;7.30;99.90
48535;DHT22;34323;52.022;5.686;2023-04-03T01:45:49;7.10;99.90
48535;DHT22;34323;52.022;5.686;2023-04-03T01:48:15;7.10;99.90
48535;DHT22;34323;52.022;5.686;2023-04-03T01:50:41;7.20;99.90
48535;DHT22;34323;52.022;5.686;2023-04-03T01:53:07;7.30;99.90
48535;DHT22;34323;52.022;5.686;2023-04-03T01:55:33;7.40;99.90
48535;DHT22;34323;52.022;5.686;2023-04-03T01:57:58;7.20;99.90
48535;DHT22;34323;52.022;5.686;2023-04-03T02:00:24;7.30;99.90
48535;DHT22;34323;52.022;5.686;2023-04-03T02:02:49;7.30;99.90
48535;DHT22;34323;52.022;5.686;2023-04-03T02:05:15;7.10;99.90
48535;DHT22;34323;52.022;5.686;2023-04-03T02:07:41;7.20;99.90
48535;DHT22;34323;52.022;5.686;2023-04-03T02:10:06;7.10;99.90
48535;DHT22;34323;52.022;5.686;2023-04-03T02:12:32;7.20;99.90
48535;DHT22;34323;52.022;5.686;2023-04-03T02:14:58;7.30;99.90
48535;DHT22;34323;52.022;5.686;2023-04-03T02:17:23;7.40;99.90
48535;DHT22;34323;52.022;5.686;2023-04-03T02:19:49;7.40;99.90
48535;DHT22;34323;52.022;5.686;2023-04-03T02:22:15;7.40;99.90
48535;DHT22;34323;52.022;5.686;2023-04-03T02:24:40;7.40;99.90
48535;DHT22;34323;52.022;5.686;2023-04-03T02:27:06;7.40;99.90
48535;DHT22;34323;52.022;5.686;2023-04-03T02:29:32;7.40;99.90
48535;DHT22;34323;52.022;5.686;2023-04-03T02:31:58;7.40;99.90
48535;DHT22;34323;52.022;5.686;2023-04-03T02:34:24;7.40;99.90
48535;DHT22;34323;52.022;5.686;2023-04-03T02:36:49;7.30;99.90
48535;DHT22;34323;52.022;5.686;2023-04-03T02:39:16;7.30;99.90
48535;DHT22;34323;52.022;5.686;2023-04-03T02:41:41;7.40;99.90
48535;DHT22;34323;52.022;5.686;2023-04-03T02:44:11;7.50;99.90
48535;DHT22;34323;52.022;5.686;2023-04-03T02:46:37;7.50;99.90
48535;DHT22;34323;52.022;5.686;2023-04-03T02:49:03;7.60;99.90
48535;DHT22;34323;52.022;5.686;2023-04-03T02:51:29;7.60;99.90
48535;DHT22;34323;52.022;5.686;2023-04-03T02:53:54;7.60;99.90
48535;DHT22;34323;52.022;5.686;2023-04-03T02:56:20;7.50;99.90
48535;DHT22;34323;52.022;5.686;2023-04-03T02:58:46;7.50;99.90
48535;DHT22;34323;52.022;5.686;2023-04-03T03:01:13;7.60;99.90
48535;DHT22;34323;52.022;5.686;2023-04-03T03:03:39;7.60;99.90
48535;DHT22;34323;52.022;5.686;2023-04-03T03:06:13;7.60;99.90
48535;DHT22;34323;52.022;5.686;2023-04-03T03:08:39;7.60;99.90
48535;DHT22;34323;52.022;5.686;2023-04-03T03:11:05;7.70;99.90
48535;DHT22;34323;52.022;5.686;2023-04-03T03:13:31;7.70;99.90
48535;DHT22;34323;52.022;5.686;2023-04-03T03:15:57;7.70;99.90
48535;DHT22;34323;52.022;5.686;2023-04-03T03:18:23;7.60;99.90
48535;DHT22;34323;52.022;5.686;2023-04-03T03:20:55;7.40;99.90
48535;DHT22;34323;52.022;5.686;2023-04-03T03:23:22;7.30;99.90
48535;DHT22;34323;52.022;5.686;2023-04-03T03:25:47;7.30;99.90
48535;DHT22;34323;52.022;5.686;2023-04-03T03:28:13;7.30;99.90
48535;DHT22;34323;52.022;5.686;2023-04-03T03:30:39;7.30;99.90
48535;DHT22;34323;52.022;5.686;2023-04-03T03:33:04;7.30;99.90
48535;DHT22;34323;52.022;5.686;2023-04-03T03:35:30;7.30;99.90
48535;DHT22;34323;52.022;5.686;2023-04-03T03:37:56;7.10;99.90
48535;DHT22;34323;52.022;5.686;2023-04-03T03:40:21;7.10;99.90
48535;DHT22;34323;52.022;5.686;2023-04-03T03:42:47;7.10;99.90
48535;DHT22;34323;52.022;5.686;2023-04-03T03:45:13;7.10;99.90
48535;DHT22;34323;52.022;5.686;2023-04-03T03:47:38;7.00;99.90
48535;DHT22;34323;52.022;5.686;2023-04-03T03:50:05;7.10;99.90
48535;DHT22;34323;52.022;5.686;2023-04-03T03:52:31;7.00;99.90
48535;DHT22;34323;52.022;5.686;2023-04-03T03:54:57;7.00;99.90
48535;DHT22;34323;52.022;5.686;2023-04-03T03:57:22;7.00;99.90
48535;DHT22;34323;52.022;5.686;2023-04-03T03:59:48;7.00;99.90
48535;DHT22;34323;52.022;5.686;2023-04-03T04:02:14;7.00;99.90
48535;DHT22;34323;52.022;5.686;2023-04-03T04:04:40;6.80;99.90
48535;DHT22;34323;52.022;5.686;2023-04-03T04:07:05;6.60;99.90
48535;DHT22;34323;52.022;5.686;2023-04-03T04:09:31;6.50;99.90
48535;DHT22;34323;52.022;5.686;2023-04-03T04:11:57;6.70;99.90
48535;DHT22;34323;52.022;5.686;2023-04-03T04:14:22;6.50;99.90
48535;DHT22;34323;52.022;5.686;2023-04-03T04:16:48;6.50;99.90
48535;DHT22;34323;52.022;5.686;2023-04-03T04:19:14;6.60;99.90
48535;DHT22;34323;52.022;5.686;2023-04-03T04:21:40;6.60;99.90
48535;DHT22;34323;52.022;5.686;2023-04-03T04:24:07;6.70;99.90
48535;DHT22;34323;52.022;5.686;2023-04-03T04:26:33;6.60;99.90
48535;DHT22;34323;52.022;5.686;2023-04-03T04:28:59;6.60;99.90
48535;DHT22;34323;52.022;5.686;2023-04-03T04:31:24;6.70;99.90
48535;DHT22;34323;52.022;5.686;2023-04-03T04:33:50;6.50;99.90
48535;DHT22;34323;52.022;5.686;2023-04-03T04:36:15;6.60;99.90
48535;DHT22;34323;52.022;5.686;2023-04-03T04:38:41;6.70;99.90
48535;DHT22;34323;52.022;5.686;2023-04-03T04:41:07;6.60;99.90
48535;DHT22;34323;52.022;5.686;2023-04-03T04:43:33;6.60;99.90
48535;DHT22;34323;52.022;5.686;2023-04-03T04:46:07;6.70;99.90
48535;DHT22;34323;52.022;5.686;2023-04-03T04:48:34;6.70;99.90
48535;DHT22;34323;52.022;5.686;2023-04-03T04:51:00;6.70;99.90
48535;DHT22;34323;52.022;5.686;2023-04-03T04:53:25;6.70;99.90
48535;DHT22;34323;52.022;5.686;2023-04-03T04:55:51;6.60;99.90
48535;DHT22;34323;52.022;5.686;2023-04-03T04:58:17;6.40;99.90
48535;DHT22;34323;52.022;5.686;2023-04-03T05:00:43;6.40;99.90
48535;DHT22;34323;52.022;5.686;2023-04-03T05:03:09;6.40;99.90
48535;DHT22;34323;52.022;5.686;2023-04-03T05:05:35;6.40;99.90
48535;DHT22;34323;52.022;5.686;2023-04-03T05:08:01;6.30;99.90
48535;DHT22;34323;52.022;5.686;2023-04-03T05:10:26;6.40;99.90
48535;DHT22;34323;52.022;5.686;2023-04-03T05:12:52;6.50;99.90
48535;DHT22;34323;52.022;5.686;2023-04-03T05:15:17;6.50;99.90
48535;DHT22;34323;52.022;5.686;2023-04-03T05:17:43;6.60;99.90
48535;DHT22;34323;52.022;5.686;2023-04-03T05:20:09;6.40;99.90
48535;DHT22;34323;52.022;5.686;2023-04-03T05:22:35;6.20;99.90
48535;DHT22;34323;52.022;5.686;2023-04-03T05:25:00;6.30;99.90
48535;DHT22;34323;52.022;5.686;2023-04-03T05:27:26;6.20;99.90
48535;DHT22;34323;52.022;5.686;2023-04-03T05:29:54;6.00;99.90
48535;DHT22;34323;52.022;5.686;2023-04-03T05:32:19;6.20;99.90
48535;DHT22;34323;52.022;5.686;2023-04-03T05:34:45;6.20;99.90
48535;DHT22;34323;52.022;5.686;2023-04-03T05:37:11;6.30;99.90
48535;DHT22;34323;52.022;5.686;2023-04-03T05:39:37;6.40;99.90
48535;DHT22;34323;52.022;5.686;2023-04-03T05:42:04;6.30;99.90
48535;DHT22;34323;52.022;5.686;2023-04-03T05:44:29;6.40;99.90
48535;DHT22;34323;52.022;5.686;2023-04-03T05:46:55;6.30;99.90
48535;DHT22;34323;52.022;5.686;2023-04-03T05:49:21;6.10;99.90
48535;DHT22;34323;52.022;5.686;2023-04-03T05:51:46;6.10;99.90
48535;DHT22;34323;52.022;5.686;2023-04-03T05:54:16;6.20;99.90
48535;DHT22;34323;52.022;5.686;2023-04-03T05:56:43;6.10;99.90
48535;DHT22;34323;52.022;5.686;2023-04-03T05:59:08;6.00;99.90
48535;DHT22;34323;52.022;5.686;2023-04-03T06:01:34;5.90;99.90
48535;DHT22;34323;52.022;5.686;2023-04-03T06:04:00;6.20;99.90
48535;DHT22;34323;52.022;5.686;2023-04-03T06:06:26;6.30;99.90
48535;DHT22;34323;52.022;5.686;2023-04-03T06:09:07;6.10;99.90
48535;DHT22;34323;52.022;5.686;2023-04-03T06:11:33;6.10;99.90
48535;DHT22;34323;52.022;5.686;2023-04-03T06:13:59;6.30;99.90
48535;DHT22;34323;52.022;5.686;2023-04-03T06:16:24;6.10;99.90
48535;DHT22;34323;52.022;5.686;2023-04-03T06:18:50;6.20;99.90
48535;DHT22;34323;52.022;5.686;2023-04-03T06:21:15;6.20;99.90
48535;DHT22;34323;52.022;5.686;2023-04-03T06:23:41;6.10;99.90
48535;DHT22;34323;52.022;5.686;2023-04-03T06:26:07;6.00;99.90
48535;DHT22;34323;52.022;5.686;2023-04-03T06:28:32;6.00;99.90
48535;DHT22;34323;52.022;5.686;2023-04-03T06:30:58;6.00;99.90
48535;DHT22;34323;52.022;5.686;2023-04-03T06:33:23;6.00;99.90
48535;DHT22;34323;52.022;5.686;2023-04-03T06:35:49;6.10;99.90
48535;DHT22;34323;52.022;5.686;2023-04-03T06:38:16;6.00;99.90
48535;DHT22;34323;52.022;5.686;2023-04-03T06:40:41;6.10;99.90
48535;DHT22;34323;52.022;5.686;2023-04-03T06:43:07;6.20;99.90
48535;DHT22;34323;52.022;5.686;2023-04-03T06:45:32;6.10;99.90
48535;DHT22;34323;52.022;5.686;2023-04-03T06:47:58;6.40;99.90
48535;DHT22;34323;52.022;5.686;2023-04-03T06:50:24;6.40;99.90
48535;DHT22;34323;52.022;5.686;2023-04-03T06:52:49;6.30;99.90
48535;DHT22;34323;52.022;5.686;2023-04-03T06:55:15;6.40;99.90
48535;DHT22;34323;52.022;5.686;2023-04-03T06:57:40;6.50;99.90
48535;DHT22;34323;52.022;5.686;2023-04-03T07:00:07;6.70;99.90
48535;DHT22;34323;52.022;5.686;2023-04-03T07:02:32;6.80;99.90
48535;DHT22;34323;52.022;5.686;2023-04-03T07:04:58;6.90;99.90
48535;DHT22;34323;52.022;5.686;2023-04-03T07:07:24;6.60;99.90
48535;DHT22;34323;52.022;5.686;2023-04-03T07:09:49;6.60;99.90
48535;DHT22;34323;52.022;5.686;2023-04-03T07:12:15;7.00;99.90
48535;DHT22;34323;52.022;5.686;2023-04-03T07:14:41;7.10;99.90
48535;DHT22;34323;52.022;5.686;2023-04-03T07:17:07;7.10;99.90
48535;DHT22;34323;52.022;5.686;2023-04-03T07:19:33;7.00;99.90
48535;DHT22;34323;52.022;5.686;2023-04-03T07:21:59;7.00;99.90
48535;DHT22;34323;52.022;5.686;2023-04-03T07:24:24;7.00;99.90
48535;DHT22;34323;52.022;5.686;2023-04-03T07:26:51;7.40;99.90
48535;DHT22;34323;52.022;5.686;2023-04-03T07:29:17;7.50;99.90
48535;DHT22;34323;52.022;5.686;2023-04-03T07:31:43;7.30;99.90
48535;DHT22;34323;52.022;5.686;2023-04-03T07:34:10;7.30;99.90
48535;DHT22;34323;52.022;5.686;2023-04-03T07:36:36;7.10;99.90
48535;DHT22;34323;52.022;5.686;2023-04-03T07:39:01;7.10;99.90
48535;DHT22;34323;52.022;5.686;2023-04-03T07:41:27;7.30;99.90
48535;DHT22;34323;52.022;5.686;2023-04-03T07:43:54;7.50;99.90
48535;DHT22;34323;52.022;5.686;2023-04-03T07:46:20;7.60;99.90
48535;DHT22;34323;52.022;5.686;2023-04-03T07:48:46;7.80;99.90
48535;DHT22;34323;52.022;5.686;2023-04-03T07:51:12;7.80;99.90
48535;DHT22;34323;52.022;5.686;2023-04-03T07:53:38;7.80;99.90
48535;DHT22;34323;52.022;5.686;2023-04-03T07:56:03;7.70;99.90
48535;DHT22;34323;52.022;5.686;2023-04-03T07:58:30;7.70;99.90
48535;DHT22;34323;52.022;5.686;2023-04-03T08:00:55;8.00;99.90
48535;DHT22;34323;52.022;5.686;2023-04-03T08:03:21;8.20;99.90
48535;DHT22;34323;52.022;5.686;2023-04-03T08:05:48;8.50;99.90
48535;DHT22;34323;52.022;5.686;2023-04-03T08:08:17;8.40;99.90
48535;DHT22;34323;52.022;5.686;2023-04-03T08:10:43;8.40;99.90
48535;DHT22;34323;52.022;5.686;2023-04-03T08:13:09;8.60;99.90
48535;DHT22;34323;52.022;5.686;2023-04-03T08:15:35;8.70;99.90
48535;DHT22;34323;52.022;5.686;2023-04-03T08:18:01;8.60;99.90
48535;DHT22;34323;52.022;5.686;2023-04-03T08:20:27;8.90;99.90
48535;DHT22;34323;52.022;5.686;2023-04-03T08:22:53;8.80;99.90
48535;DHT22;34323;52.022;5.686;2023-04-03T08:25:19;8.70;99.90
48535;DHT22;34323;52.022;5.686;2023-04-03T08:27:44;8.70;99.90
48535;DHT22;34323;52.022;5.686;2023-04-03T08:30:11;8.60;99.90
48535;DHT22;34323;52.022;5.686;2023-04-03T08:32:37;8.80;99.90
48535;DHT22;34323;52.022;5.686;2023-04-03T08:35:04;8.90;99.90
48535;DHT22;34323;52.022;5.686;2023-04-03T08:37:30;8.90;99.90
48535;DHT22;34323;52.022;5.686;2023-04-03T08:39:55;8.90;99.90
48535;DHT22;34323;52.022;5.686;2023-04-03T08:45:16;9.10;99.90
48535;DHT22;34323;52.022;5.686;2023-04-03T08:50:17;9.40;99.90
48535;DHT22;34323;52.022;5.686;2023-04-03T08:52:49;9.60;99.90
48535;DHT22;34323;52.022;5.686;2023-04-03T08:58:04;10.10;99.90
48535;DHT22;34323;52.022;5.686;2023-04-03T09:00:51;10.20;99.90
48535;DHT22;34323;52.022;5.686;2023-04-03T09:03:19;10.50;99.90
48535;DHT22;34323;52.022;5.686;2023-04-03T09:05:52;10.20;99.90
48535;DHT22;34323;52.022;5.686;2023-04-03T09:08:35;10.00;99.90
48535;DHT22;34323;52.022;5.686;2023-04-03T09:11:16;10.50;99.90
48535;DHT22;34323;52.022;5.686;2023-04-03T09:14:07;10.90;99.90
48535;DHT22;34323;52.022;5.686;2023-04-03T09:16:58;11.00;99.90
48535;DHT22;34323;52.022;5.686;2023-04-03T09:22:19;11.20;99.90
48535;DHT22;34323;52.022;5.686;2023-04-03T09:27:26;11.60;99.90
48535;DHT22;34323;52.022;5.686;2023-04-03T09:29:56;11.40;98.80
48535;DHT22;34323;52.022;5.686;2023-04-03T09:32:31;11.40;99.90
48535;DHT22;34323;52.022;5.686;2023-04-03T09:35:27;11.30;98.70
48535;DHT22;34323;52.022;5.686;2023-04-03T09:40:39;11.30;96.90
48535;DHT22;34323;52.022;5.686;2023-04-03T09:45:44;11.80;99.90
48535;DHT22;34323;52.022;5.686;2023-04-03T09:50:56;11.80;99.60
48535;DHT22;34323;52.022;5.686;2023-04-03T09:53:38;12.00;99.40
48535;DHT22;34323;52.022;5.686;2023-04-03T09:58:40;12.80;98.40
48535;DHT22;34323;52.022;5.686;2023-04-03T10:01:31;12.70;97.20
48535;DHT22;34323;52.022;5.686;2023-04-03T10:04:18;12.60;97.20
48535;DHT22;34323;52.022;5.686;2023-04-03T10:06:51;12.70;95.60
48535;DHT22;34323;52.022;5.686;2023-04-03T10:09:18;12.70;97.20
48535;DHT22;34323;52.022;5.686;2023-04-03T10:12:05;12.90;98.10
48535;DHT22;34323;52.022;5.686;2023-04-03T10:14:41;13.50;98.20
48535;DHT22;34323;52.022;5.686;2023-04-03T10:27:59;14.10;96.00
48535;DHT22;34323;52.022;5.686;2023-04-03T10:31:21;14.10;95.30
48535;DHT22;34323;52.022;5.686;2023-04-03T10:36:37;13.10;98.10
48535;DHT22;34323;52.022;5.686;2023-04-03T10:39:37;12.90;98.40
48535;DHT22;34323;52.022;5.686;2023-04-03T10:47:51;14.10;98.50
48535;DHT22;34323;52.022;5.686;2023-04-03T10:50:37;14.40;96.40
48535;DHT22;34323;52.022;5.686;2023-04-03T10:56:07;14.90;97.20
48535;DHT22;34323;52.022;5.686;2023-04-03T10:58:39;15.00;98.80
48535;DHT22;34323;52.022;5.686;2023-04-03T11:01:21;15.20;97.60
48535;DHT22;34323;52.022;5.686;2023-04-03T11:03:53;15.20;98.00
48535;DHT22;34323;52.022;5.686;2023-04-03T11:06:21;15.20;97.90
48535;DHT22;34323;52.022;5.686;2023-04-03T11:08:58;15.30;98.70
48535;DHT22;34323;52.022;5.686;2023-04-03T11:11:32;15.20;99.60
48535;DHT22;34323;52.022;5.686;2023-04-03T11:14:28;15.20;97.10
48535;DHT22;34323;52.022;5.686;2023-04-03T11:22:38;14.60;98.00
48535;DHT22;34323;52.022;5.686;2023-04-03T11:27:49;14.80;96.30
48535;DHT22;34323;52.022;5.686;2023-04-03T11:35:32;15.50;99.00
48535;DHT22;34323;52.022;5.686;2023-04-03T11:38:00;15.60;97.10
48535;DHT22;34323;52.022;5.686;2023-04-03T11:40:32;15.50;97.10
48535;DHT22;34323;52.022;5.686;2023-04-03T11:45:26;14.90;97.00
48535;DHT22;34323;52.022;5.686;2023-04-03T11:47:56;14.50;95.40
48535;DHT22;34323;52.022;5.686;2023-04-03T11:50:40;13.40;97.10
48535;DHT22;34323;52.022;5.686;2023-04-03T12:00:55;15.80;98.00
48535;DHT22;34323;52.022;5.686;2023-04-03T12:06:41;16.20;96.50
48535;DHT22;34323;52.022;5.686;2023-04-03T12:08:49;16.00;97.00
48535;DHT22;34323;52.022;5.686;2023-04-03T12:11:35;16.10;98.10
48535;DHT22;34323;52.022;5.686;2023-04-03T12:14:04;16.70;97.20
48535;DHT22;34323;52.022;5.686;2023-04-03T12:24:36;16.40;94.40
48535;DHT22;34323;52.022;5.686;2023-04-03T12:35:57;15.70;95.80
48535;DHT22;34323;52.022;5.686;2023-04-03T12:41:27;16.10;97.40
48535;DHT22;34323;52.022;5.686;2023-04-03T12:46:50;16.70;95.70
48535;DHT22;34323;52.022;5.686;2023-04-03T12:51:54;16.60;97.20
48535;DHT22;34323;52.022;5.686;2023-04-03T12:57:18;17.10;96.10
48535;DHT22;34323;52.022;5.686;2023-04-03T12:59:44;17.10;97.00
48535;DHT22;34323;52.022;5.686;2023-04-03T13:02:34;17.40;95.40
48535;DHT22;34323;52.022;5.686;2023-04-03T13:05:06;17.20;96.30
48535;DHT22;34323;52.022;5.686;2023-04-03T13:07:34;17.20;96.60
48535;DHT22;34323;52.022;5.686;2023-04-03T13:12:54;17.40;97.10
48535;DHT22;34323;52.022;5.686;2023-04-03T13:17:49;18.10;97.30
48535;DHT22;34323;52.022;5.686;2023-04-03T13:20:23;18.40;95.30
48535;DHT22;34323;52.022;5.686;2023-04-03T13:23:00;18.40;94.80
48535;DHT22;34323;52.022;5.686;2023-04-03T13:25:29;18.20;96.90
48535;DHT22;34323;52.022;5.686;2023-04-03T13:27:57;19.00;96.80
48535;DHT22;34323;52.022;5.686;2023-04-03T13:30:29;19.40;95.90
48535;DHT22;34323;52.022;5.686;2023-04-03T13:32:56;19.30;94.40
48535;DHT22;34323;52.022;5.686;2023-04-03T13:35:40;19.90;97.00
48535;DHT22;34323;52.022;5.686;2023-04-03T13:38:28;20.80;95.70
48535;DHT22;34323;52.022;5.686;2023-04-03T13:40:54;21.80;95.60
48535;DHT22;34323;52.022;5.686;2023-04-03T13:43:24;22.90;95.60
48535;DHT22;34323;52.022;5.686;2023-04-03T13:46:00;23.60;93.40
48535;DHT22;34323;52.022;5.686;2023-04-03T13:48:26;23.00;92.40
48535;DHT22;34323;52.022;5.686;2023-04-03T13:53:50;24.20;95.00
48535;DHT22;34323;52.022;5.686;2023-04-03T13:56:22;25.00;93.20
48535;DHT22;34323;52.022;5.686;2023-04-03T13:58:58;24.20;92.00
48535;DHT22;34323;52.022;5.686;2023-04-03T14:01:25;22.20;92.60
48535;DHT22;34323;52.022;5.686;2023-04-03T14:03:57;22.90;93.30
48535;DHT22;34323;52.022;5.686;2023-04-03T14:06:23;23.50;94.10
48535;DHT22;34323;52.022;5.686;2023-04-03T14:08:50;23.80;92.90
48535;DHT22;34323;52.022;5.686;2023-04-03T14:11:22;24.10;94.40
48535;DHT22;34323;52.022;5.686;2023-04-03T14:13:49;23.80;92.50
48535;DHT22;34323;52.022;5.686;2023-04-03T14:16:18;24.50;92.40
48535;DHT22;34323;52.022;5.686;2023-04-03T14:18:46;24.60;92.50
48535;DHT22;34323;52.022;5.686;2023-04-03T14:21:14;24.80;93.60
48535;DHT22;34323;52.022;5.686;2023-04-03T14:23:41;23.60;91.70
48535;DHT22;34323;52.022;5.686;2023-04-03T14:26:16;21.90;92.80
48535;DHT22;34323;52.022;5.686;2023-04-03T14:28:47;22.50;93.20
48535;DHT22;34323;52.022;5.686;2023-04-03T14:31:15;22.10;94.20
48535;DHT22;34323;52.022;5.686;2023-04-03T14:33:41;22.20;93.20
48535;DHT22;34323;52.022;5.686;2023-04-03T14:36:15;22.50;92.80
48535;DHT22;34323;52.022;5.686;2023-04-03T14:38:42;23.80;93.20
48535;DHT22;34323;52.022;5.686;2023-04-03T14:41:12;24.60;92.90
48535;DHT22;34323;52.022;5.686;2023-04-03T14:43:38;24.70;93.50
48535;DHT22;34323;52.022;5.686;2023-04-03T14:46:04;24.90;93.20
48535;DHT22;34323;52.022;5.686;2023-04-03T14:48:30;25.30;91.60
48535;DHT22;34323;52.022;5.686;2023-04-03T14:50:56;25.20;91.10
48535;DHT22;34323;52.022;5.686;2023-04-03T14:53:23;25.20;92.20
48535;DHT22;34323;52.022;5.686;2023-04-03T14:55:51;23.70;92.90
48535;DHT22;34323;52.022;5.686;2023-04-03T14:58:19;24.10;92.70
48535;DHT22;34323;52.022;5.686;2023-04-03T15:00:45;24.20;93.10
48535;DHT22;34323;52.022;5.686;2023-04-03T15:03:20;23.00;92.20
48535;DHT22;34323;52.022;5.686;2023-04-03T15:05:48;23.30;92.60
48535;DHT22;34323;52.022;5.686;2023-04-03T15:08:25;23.70;92.30
48535;DHT22;34323;52.022;5.686;2023-04-03T15:10:52;23.20;91.20
48535;DHT22;34323;52.022;5.686;2023-04-03T15:13:19;22.20;92.60
48535;DHT22;34323;52.022;5.686;2023-04-03T15:15:46;21.80;93.20
48535;DHT22;34323;52.022;5.686;2023-04-03T15:18:21;22.00;92.20
48535;DHT22;34323;52.022;5.686;2023-04-03T15:20:47;22.80;92.60
48535;DHT22;34323;52.022;5.686;2023-04-03T15:23:14;23.30;90.70
48535;DHT22;34323;52.022;5.686;2023-04-03T15:25:45;23.50;92.10
48535;DHT22;34323;52.022;5.686;2023-04-03T15:28:36;23.70;92.20
48535;DHT22;34323;52.022;5.686;2023-04-03T15:31:03;23.40;91.80
48535;DHT22;34323;52.022;5.686;2023-04-03T15:33:29;24.20;92.30
48535;DHT22;34323;52.022;5.686;2023-04-03T15:35:55;23.60;91.90
48535;DHT22;34323;52.022;5.686;2023-04-03T15:38:20;24.00;92.00
48535;DHT22;34323;52.022;5.686;2023-04-03T15:40:46;23.50;93.10
48535;DHT22;34323;52.022;5.686;2023-04-03T15:43:12;22.40;92.10
48535;DHT22;34323;52.022;5.686;2023-04-03T15:45:38;22.10;92.00
48535;DHT22;34323;52.022;5.686;2023-04-03T15:48:04;21.60;92.00
48535;DHT22;34323;52.022;5.686;2023-04-03T15:50:31;20.80;93.40
48535;DHT22;34323;52.022;5.686;2023-04-03T15:52:57;20.20;93.60
48535;DHT22;34323;52.022;5.686;2023-04-03T15:55:28;19.70;93.50
48535;DHT22;34323;52.022;5.686;2023-04-03T15:57:53;19.10;93.20
48535;DHT22;34323;52.022;5.686;2023-04-03T16:00:20;18.20;93.00
48535;DHT22;34323;52.022;5.686;2023-04-03T16:02:46;16.80;94.40
48535;DHT22;34323;52.022;5.686;2023-04-03T16:05:13;16.20;95.20
48535;DHT22;34323;52.022;5.686;2023-04-03T16:07:40;15.70;94.00
48535;DHT22;34323;52.022;5.686;2023-04-03T16:10:08;15.90;95.60
48535;DHT22;34323;52.022;5.686;2023-04-03T16:12:34;15.80;95.20
48535;DHT22;34323;52.022;5.686;2023-04-03T16:15:00;16.10;95.50
48535;DHT22;34323;52.022;5.686;2023-04-03T16:17:26;16.70;95.00
48535;DHT22;34323;52.022;5.686;2023-04-03T16:19:53;16.70;95.20
48535;DHT22;34323;52.022;5.686;2023-04-03T16:22:19;16.80;95.30
48535;DHT22;34323;52.022;5.686;2023-04-03T16:24:45;17.10;95.80
48535;DHT22;34323;52.022;5.686;2023-04-03T16:27:11;17.60;94.40
48535;DHT22;34323;52.022;5.686;2023-04-03T16:29:36;18.10;93.60
48535;DHT22;34323;52.022;5.686;2023-04-03T16:32:03;18.20;94.50
48535;DHT22;34323;52.022;5.686;2023-04-03T16:34:29;18.20;94.60
48535;DHT22;34323;52.022;5.686;2023-04-03T16:36:57;18.40;94.90
48535;DHT22;34323;52.022;5.686;2023-04-03T16:39:22;18.70;94.80
48535;DHT22;34323;52.022;5.686;2023-04-03T16:41:48;19.40;94.60
48535;DHT22;34323;52.022;5.686;2023-04-03T16:44:14;18.90;95.00
48535;DHT22;34323;52.022;5.686;2023-04-03T16:46:39;18.00;95.00
48535;DHT22;34323;52.022;5.686;2023-04-03T16:49:05;18.70;94.90
48535;DHT22;34323;52.022;5.686;2023-04-03T16:51:30;19.10;94.80
48535;DHT22;34323;52.022;5.686;2023-04-03T16:53:57;18.80;94.30
48535;DHT22;34323;52.022;5.686;2023-04-03T16:56:23;18.40;95.10
48535;DHT22;34323;52.022;5.686;2023-04-03T16:58:48;18.40;94.50
48535;DHT22;34323;52.022;5.686;2023-04-03T17:01:16;18.10;94.30
48535;DHT22;34323;52.022;5.686;2023-04-03T17:03:42;17.50;95.00
48535;DHT22;34323;52.022;5.686;2023-04-03T17:06:08;17.40;95.50
48535;DHT22;34323;52.022;5.686;2023-04-03T17:08:39;17.30;94.90
48535;DHT22;34323;52.022;5.686;2023-04-03T17:11:05;16.80;94.60
48535;DHT22;34323;52.022;5.686;2023-04-03T17:13:31;16.80;95.30
48535;DHT22;34323;52.022;5.686;2023-04-03T17:15:58;16.60;94.90
48535;DHT22;34323;52.022;5.686;2023-04-03T17:18:23;16.30;94.60
48535;DHT22;34323;52.022;5.686;2023-04-03T17:20:49;15.90;95.20
48535;DHT22;34323;52.022;5.686;2023-04-03T17:23:15;15.60;95.70
48535;DHT22;34323;52.022;5.686;2023-04-03T17:25:40;15.30;95.40
48535;DHT22;34323;52.022;5.686;2023-04-03T17:28:06;14.80;95.90
48535;DHT22;34323;52.022;5.686;2023-04-03T17:30:31;14.70;95.90
48535;DHT22;34323;52.022;5.686;2023-04-03T17:32:57;14.50;96.50
48535;DHT22;34323;52.022;5.686;2023-04-03T17:35:22;14.50;96.10
48535;DHT22;34323;52.022;5.686;2023-04-03T17:37:48;14.50;96.10
48535;DHT22;34323;52.022;5.686;2023-04-03T17:40:18;14.60;96.20
48535;DHT22;34323;52.022;5.686;2023-04-03T17:42:43;14.60;96.60
48535;DHT22;34323;52.022;5.686;2023-04-03T17:45:09;14.60;97.00